Time;durP1;ratioP1;P1;durP2;ratioP2;P2;SDS_P1;SDS_P2;PMS_P1;PMS_P2;Temp;Humidity;BMP_temperature;BMP_pressure;BME280_temperature;BME280_humidity;BME280_pressure;Samples;Min_cycle;Max_cycle;Signal;HPM_P1;HPM_P2
2023/08/04 00:01:17;;;;;;;11.18;3.80;;;;;;;15.57;100.00;100308.22;4968893;28;20182;-47
2023/08/04 00:03:42;;;;;;;10.70;3.80;;;;;;;15.66;100.00;100316.56;4952014;28;20190;-47
2023/08/04 00:06:09;;;;;;;12.50;4.00;;;;;;;15.60;100.00;100311.56;4968481;28;20194;-46
2023/08/04 00:08:34;;;;;;;11.93;4.03;;;;;;;15.58;100.00;100321.59;4968994;28;20224;-47
2023/08/04 00:11:00;;;;;;;9.05;3.33;;;;;;;15.59;100.00;100323.34;4966984;28;20217;-46
2023/08/04 00:13:25;;;;;;;9.23;3.88;;;;;;;15.61;100.00;100329.50;4966974;28;20189;-47
2023/08/04 00:15:51;;;;;;;7.78;3.35;;;;;;;15.68;100.00;100326.38;4966584;28;20186;-47
2023/08/04 00:18:16;;;;;;;8.23;3.40;;;;;;;15.61;100.00;100340.31;4966488;28;20189;-45
2023/08/04 00:20:42;;;;;;;10.93;3.67;;;;;;;15.69;100.00;100337.06;4971916;23;20236;-43
2023/08/04 00:23:07;;;;;;;14.13;3.90;;;;;;;15.61;100.00;100342.13;4990505;28;20177;-41
2023/08/04 00:25:33;;;;;;;11.75;3.40;;;;;;;15.64;100.00;100345.50;4990486;28;20196;-40
2023/08/04 00:27:58;;;;;;;11.55;3.22;;;;;;;15.61;100.00;100337.63;5005277;28;20201;-42
2023/08/04 00:30:25;;;;;;;9.52;3.78;;;;;;;15.65;100.00;100336.44;5008697;28;20196;-44
2023/08/04 00:32:51;;;;;;;11.13;4.03;;;;;;;15.66;100.00;100346.25;5010101;28;20219;-42
2023/08/04 00:35:16;;;;;;;10.63;3.38;;;;;;;15.58;100.00;100345.91;5010046;28;20164;-41
2023/08/04 00:37:42;;;;;;;9.32;3.78;;;;;;;15.58;100.00;100353.13;5010132;28;20204;-42
2023/08/04 00:40:09;;;;;;;7.45;3.30;;;;;;;15.51;100.00;100347.28;5010104;28;20513;-41
2023/08/04 00:42:34;;;;;;;10.20;3.50;;;;;;;15.50;100.00;100347.38;5009833;28;20208;-42
2023/08/04 00:45:00;;;;;;;14.10;3.50;;;;;;;15.55;100.00;100359.63;5009833;28;20176;-42
2023/08/04 00:47:25;;;;;;;6.00;3.15;;;;;;;15.54;100.00;100349.78;5008411;28;20236;-40
2023/08/04 00:49:53;;;;;;;10.77;3.72;;;;;;;15.47;100.00;100353.84;5013088;28;20171;-40
2023/08/04 00:52:18;;;;;;;8.10;3.08;;;;;;;15.58;100.00;100361.25;5014323;28;20602;-42
2023/08/04 00:54:45;;;;;;;10.70;3.42;;;;;;;15.51;100.00;100355.38;5013999;28;20264;-43
2023/08/04 00:57:11;;;;;;;6.28;2.85;;;;;;;15.59;100.00;100366.56;5012533;28;20220;-42
2023/08/04 00:59:37;;;;;;;10.60;3.65;;;;;;;15.53;100.00;100363.41;5014046;28;20266;-43
2023/08/04 01:02:02;;;;;;;8.25;3.30;;;;;;;15.56;100.00;100369.44;5012538;28;20172;-42
2023/08/04 01:04:29;;;;;;;11.07;3.33;;;;;;;15.55;100.00;100367.72;5013781;28;20183;-42
2023/08/04 01:07:13;;;;;;;8.15;3.90;;;;;;;15.56;100.00;100377.53;5019800;28;20269;-40
2023/08/04 01:10:00;;;;;;;9.77;3.60;;;;;;;15.51;100.00;100387.78;5033946;28;20160;-40
2023/08/04 01:12:35;;;;;;;14.07;3.70;;;;;;;15.40;100.00;100387.63;5033451;28;20251;-45
2023/08/04 01:15:02;;;;;;;9.38;4.22;;;;;;;15.36;100.00;100386.09;5032213;28;20194;-42
2023/08/04 01:17:30;;;;;;;13.25;3.92;;;;;;;15.44;100.00;100387.31;5033384;28;20212;-43
2023/08/04 01:19:57;;;;;;;9.70;3.40;;;;;;;15.38;100.00;100394.97;5033319;28;20218;-41
2023/08/04 01:22:24;;;;;;;10.60;4.03;;;;;;;15.38;100.00;100386.88;5032676;28;20168;-43
2023/08/04 01:24:50;;;;;;;7.57;3.17;;;;;;;15.42;100.00;100399.19;5032945;28;20535;-41
2023/08/04 01:27:24;;;;;;;9.82;4.07;;;;;;;15.37;100.00;100404.00;5033289;28;20192;-40
2023/08/04 01:29:49;;;;;;;9.68;3.67;;;;;;;15.38;100.00;100409.31;5031641;28;20172;-41
2023/08/04 01:32:15;;;;;;;10.73;4.05;;;;;;;15.41;100.00;100413.66;5014986;28;20268;-42
2023/08/04 01:34:42;;;;;;;10.98;4.05;;;;;;;15.41;100.00;100414.53;5033462;28;20211;-44
2023/08/04 01:37:08;;;;;;;8.90;3.70;;;;;;;15.29;100.00;100409.06;5032761;28;20195;-41
2023/08/04 01:39:36;;;;;;;8.73;3.88;;;;;;;15.32;100.00;100422.34;5031874;28;20594;-41
2023/08/04 01:42:02;;;;;;;8.30;3.85;;;;;;;15.28;100.00;100423.50;5033278;28;20634;-40
2023/08/04 01:44:27;;;;;;;9.18;3.60;;;;;;;15.34;100.00;100421.28;5031775;28;20199;-41
2023/08/04 01:46:53;;;;;;;10.77;3.97;;;;;;;15.35;100.00;100423.03;5032333;28;20215;-40
2023/08/04 01:49:18;;;;;;;9.25;3.85;;;;;;;15.38;100.00;100421.94;5032594;28;20180;-42
2023/08/04 01:51:44;;;;;;;12.15;3.90;;;;;;;15.28;100.00;100432.47;5031433;28;20248;-43
2023/08/04 01:54:09;;;;;;;8.07;3.25;;;;;;;15.34;100.00;100434.78;5031303;28;20188;-43
2023/08/04 01:56:35;;;;;;;10.43;3.30;;;;;;;15.28;100.00;100429.75;5032544;28;20180;-40
2023/08/04 01:59:00;;;;;;;8.48;3.55;;;;;;;15.28;100.00;100435.16;5031048;28;20180;-42
2023/08/04 02:01:26;;;;;;;7.70;2.83;;;;;;;15.27;100.00;100430.75;5014464;28;20278;-44
2023/08/04 02:03:51;;;;;;;12.07;3.53;;;;;;;15.21;100.00;100436.53;5032572;28;20712;-41
2023/08/04 02:06:17;;;;;;;10.75;3.60;;;;;;;15.17;100.00;100437.69;5032259;28;20262;-42
2023/08/04 02:08:42;;;;;;;11.43;2.97;;;;;;;15.21;100.00;100433.81;5032805;28;20164;-39
2023/08/04 02:11:08;;;;;;;6.82;3.22;;;;;;;15.30;100.00;100430.53;5032529;28;20199;-40
2023/08/04 02:13:33;;;;;;;7.93;3.00;;;;;;;15.21;100.00;100439.22;5031358;28;20583;-42
2023/08/04 02:15:59;;;;;;;9.10;3.10;;;;;;;15.29;100.00;100436.06;5032236;28;20255;-41
2023/08/04 02:18:25;;;;;;;7.30;2.85;;;;;;;15.27;100.00;100436.13;5030938;28;20731;-39
2023/08/04 02:20:50;;;;;;;8.05;3.15;;;;;;;15.22;100.00;100435.56;5032343;28;20199;-41
2023/08/04 02:23:15;;;;;;;9.23;3.15;;;;;;;15.24;100.00;100431.81;5032105;28;20539;-40
2023/08/04 02:25:41;;;;;;;9.88;2.85;;;;;;;15.29;100.00;100428.81;5030673;28;20200;-40
2023/08/04 02:28:07;;;;;;;8.65;2.80;;;;;;;15.24;100.00;100439.91;5014150;28;20207;-46
2023/08/04 02:30:33;;;;;;;8.25;2.95;;;;;;;15.29;100.00;100446.84;5032443;28;20234;-41
2023/08/04 02:32:58;;;;;;;7.75;2.95;;;;;;;15.25;100.00;100438.06;5032399;28;20208;-42
2023/08/04 02:35:24;;;;;;;7.72;2.85;;;;;;;15.22;100.00;100443.69;5032110;28;20180;-40
2023/08/04 02:37:49;;;;;;;5.03;2.40;;;;;;;15.22;100.00;100452.63;5032072;28;20645;-43
2023/08/04 02:40:16;;;;;;;5.45;2.70;;;;;;;15.22;100.00;100458.03;5032242;28;20164;-40
2023/08/04 02:42:42;;;;;;;8.95;2.92;;;;;;;15.02;100.00;100455.69;5031755;28;20187;-43
2023/08/04 02:45:08;;;;;;;5.20;2.58;;;;;;;15.03;100.00;100457.44;5031816;28;20240;-42
2023/08/04 02:47:36;;;;;;;5.70;2.88;;;;;;;15.07;100.00;100456.31;5030537;28;20192;-40
2023/08/04 02:50:04;;;;;;;3.90;2.40;;;;;;;15.18;100.00;100453.78;5032088;28;20230;-41
2023/08/04 02:52:29;;;;;;;7.95;3.22;;;;;;;15.14;100.00;100452.25;5031473;28;20204;-42
2023/08/04 02:54:55;;;;;;;6.72;2.80;;;;;;;15.09;100.00;100462.47;5031592;28;20247;-41
2023/08/04 02:57:20;;;;;;;12.88;3.75;;;;;;;15.05;100.00;100460.94;5031584;28;20192;-43
2023/08/04 02:59:46;;;;;;;8.43;2.97;;;;;;;14.91;100.00;100458.22;5031585;28;20167;-44
2023/08/04 03:02:11;;;;;;;9.77;3.45;;;;;;;14.86;100.00;100465.72;5031552;28;20271;-41
2023/08/04 03:04:39;;;;;;;9.27;3.10;;;;;;;14.80;100.00;100466.97;5026571;28;20215;-42
2023/08/04 03:07:05;;;;;;;6.10;2.58;;;;;;;14.84;100.00;100472.06;5011561;28;20669;-44
2023/08/04 03:09:30;;;;;;;8.20;3.22;;;;;;;14.82;100.00;100474.03;5011651;28;20272;-44
2023/08/04 03:11:56;;;;;;;9.10;3.88;;;;;;;14.82;100.00;100482.13;5010747;28;20252;-40
2023/08/04 03:14:21;;;;;;;7.53;3.22;;;;;;;14.77;100.00;100478.81;5011791;28;20669;-42
2023/08/04 03:16:47;;;;;;;10.82;3.38;;;;;;;14.63;100.00;100479.66;5011057;28;20769;-42
2023/08/04 03:19:13;;;;;;;13.07;3.78;;;;;;;14.58;100.00;100484.47;5011532;28;20187;-41
2023/08/04 03:21:38;;;;;;;9.63;3.35;;;;;;;14.55;100.00;100484.66;5011238;28;20196;-40
2023/08/04 03:24:04;;;;;;;11.02;3.78;;;;;;;14.61;100.00;100492.38;5010598;28;20176;-42
2023/08/04 03:26:29;;;;;;;9.38;3.25;;;;;;;14.61;100.00;100483.41;5011188;28;20267;-43
2023/08/04 03:28:55;;;;;;;9.65;3.35;;;;;;;14.56;100.00;100496.28;5011201;28;20189;-41
2023/08/04 03:31:20;;;;;;;8.57;3.50;;;;;;;14.54;100.00;100492.78;5011361;28;20641;-42
2023/08/04 03:33:46;;;;;;;8.95;3.67;;;;;;;14.53;100.00;100493.75;5010215;28;20669;-41
2023/08/04 03:36:12;;;;;;;5.93;3.15;;;;;;;14.58;100.00;100494.38;5010426;28;20280;-42
2023/08/04 03:38:37;;;;;;;7.13;3.22;;;;;;;14.54;100.00;100503.56;5009351;28;20184;-41
2023/08/04 03:41:03;;;;;;;9.02;3.22;;;;;;;14.53;100.00;100501.84;5010633;28;20596;-43
2023/08/04 03:43:28;;;;;;;6.75;3.10;;;;;;;14.50;100.00;100511.00;5010660;28;20223;-42
2023/08/04 03:45:53;;;;;;;7.47;3.05;;;;;;;14.51;100.00;100515.41;5010555;28;20195;-44
2023/08/04 03:48:19;;;;;;;5.93;3.15;;;;;;;14.56;100.00;100510.66;5010550;28;20211;-43
2023/08/04 03:50:44;;;;;;;5.93;3.28;;;;;;;14.61;100.00;100516.63;5009224;28;20169;-41
2023/08/04 03:53:10;;;;;;;7.55;3.33;;;;;;;14.60;100.00;100520.28;5010483;28;20599;-39
2023/08/04 03:55:35;;;;;;;7.55;3.38;;;;;;;14.56;100.00;100520.56;5010489;28;20624;-41
2023/08/04 03:58:01;;;;;;;7.68;2.80;;;;;;;14.63;100.00;100521.94;5010141;28;20240;-40
2023/08/04 04:00:26;;;;;;;9.88;2.72;;;;;;;14.52;100.00;100537.84;5010226;28;20200;-41
2023/08/04 04:02:52;;;;;;;5.22;3.10;;;;;;;14.47;100.00;100530.03;5010243;28;20226;-41
2023/08/04 04:05:17;;;;;;;6.00;2.88;;;;;;;14.53;100.00;100539.59;5010005;28;20188;-42
2023/08/04 04:07:43;;;;;;;9.82;3.03;;;;;;;14.48;100.00;100533.63;5009947;28;20200;-42
2023/08/04 04:10:08;;;;;;;11.27;3.13;;;;;;;14.47;100.00;100543.50;5010131;28;20173;-40
2023/08/04 04:12:35;;;;;;;8.23;2.83;;;;;;;14.50;100.00;100553.25;5010011;28;20234;-40
2023/08/04 04:15:04;;;;;;;9.15;3.78;;;;;;;14.52;100.00;100548.63;5010028;28;20521;-40
2023/08/04 04:17:29;;;;;;;8.60;2.90;;;;;;;14.52;100.00;100554.00;5008461;28;20290;-42
2023/08/04 04:19:55;;;;;;;5.57;2.45;;;;;;;14.61;100.00;100564.31;5009880;28;20658;-39
2023/08/04 04:22:20;;;;;;;8.70;3.45;;;;;;;14.60;100.00;100562.56;5009780;28;20176;-42
2023/08/04 04:24:46;;;;;;;6.43;2.67;;;;;;;14.65;100.00;100560.47;5009853;28;20177;-41
2023/08/04 04:27:12;;;;;;;9.18;3.20;;;;;;;14.59;100.00;100563.53;5009839;28;20208;-43
2023/08/04 04:29:37;;;;;;;6.78;3.15;;;;;;;14.62;100.00;100566.03;5009797;28;20244;-40
2023/08/04 04:32:03;;;;;;;9.52;3.45;;;;;;;14.64;100.00;100566.81;5009800;28;20663;-42
2023/08/04 04:34:29;;;;;;;3.78;2.67;;;;;;;14.67;100.00;100571.16;5009737;28;20725;-42
2023/08/04 04:36:58;;;;;;;7.85;3.28;;;;;;;14.67;100.00;100569.34;5009947;28;20698;-43
2023/08/04 04:39:25;;;;;;;13.05;3.00;;;;;;;14.71;100.00;100576.25;5009994;28;20169;-43
2023/08/04 04:41:50;;;;;;;7.47;2.60;;;;;;;14.61;100.00;100575.94;5010013;28;20180;-40
2023/08/04 04:44:16;;;;;;;6.28;3.00;;;;;;;14.63;100.00;100579.44;5010421;28;20161;-40
2023/08/04 04:46:41;;;;;;;10.82;3.45;;;;;;;14.60;100.00;100573.34;5010016;28;20208;-42
2023/08/04 04:49:07;;;;;;;5.70;3.10;;;;;;;14.63;100.00;100583.97;5010082;28;20186;-43
2023/08/04 04:51:32;;;;;;;6.25;3.08;;;;;;;14.62;100.00;100579.50;5009982;28;20247;-42
2023/08/04 04:53:58;;;;;;;7.25;2.95;;;;;;;14.66;100.00;100572.97;5009926;28;20189;-43
2023/08/04 04:56:24;;;;;;;7.53;2.75;;;;;;;14.63;100.00;100579.44;5009536;28;20161;-43
2023/08/04 04:58:50;;;;;;;10.38;2.90;;;;;;;14.67;100.00;100581.94;5009939;28;20208;-41
2023/08/04 05:01:16;;;;;;;8.70;2.60;;;;;;;14.69;100.00;100588.97;5009767;28;20157;-43
2023/08/04 05:03:41;;;;;;;4.40;2.67;;;;;;;14.80;100.00;100582.94;5009722;28;20183;-40
2023/08/04 05:06:07;;;;;;;4.78;2.60;;;;;;;14.83;100.00;100582.78;5009978;28;20317;-41
2023/08/04 05:08:32;;;;;;;8.95;2.40;;;;;;;14.74;100.00;100589.59;5009647;28;20223;-42
2023/08/04 05:10:58;;;;;;;11.98;2.97;;;;;;;14.72;100.00;100583.41;5009649;28;20624;-43
2023/08/04 05:13:24;;;;;;;11.65;2.97;;;;;;;14.79;100.00;100592.00;5010162;28;20627;-42
2023/08/04 05:15:49;;;;;;;5.35;2.40;;;;;;;14.83;100.00;100583.63;5009765;28;20173;-40
2023/08/04 05:18:16;;;;;;;5.55;2.30;;;;;;;14.84;100.00;100600.69;5010210;28;20220;-43
2023/08/04 05:20:46;;;;;;;5.13;2.50;;;;;;;14.89;100.00;100597.69;5009810;28;20199;-43
2023/08/04 05:23:12;;;;;;;6.07;2.30;;;;;;;15.02;100.00;100596.91;5009747;28;20655;-42
2023/08/04 05:25:39;;;;;;;6.63;2.88;;;;;;;15.03;100.00;100595.91;5009744;28;20200;-42
2023/08/04 05:28:40;;;;;;;6.32;2.55;;;;;;;15.04;100.00;100611.16;5009827;28;20204;-40
2023/08/04 05:31:07;;;;;;;8.20;2.50;;;;;;;14.99;100.00;100607.84;4949290;29;20194;-43
2023/08/04 05:33:33;;;;;;;7.40;2.10;;;;;;;15.06;100.00;100597.56;4997987;28;20741;-42
2023/08/04 05:35:59;;;;;;;4.75;2.50;;;;;;;15.06;100.00;100611.03;5012281;28;20173;-43
2023/08/04 05:38:25;;;;;;;7.60;2.40;;;;;;;15.21;100.00;100602.00;5013166;28;20197;-42
2023/08/04 05:40:51;;;;;;;7.50;2.45;;;;;;;15.22;100.00;100606.47;5013200;28;20654;-43
2023/08/04 05:43:17;;;;;;;6.28;2.08;;;;;;;15.22;100.00;100614.56;5010399;28;20177;-43
2023/08/04 05:45:44;;;;;;;10.00;2.40;;;;;;;15.19;100.00;100603.94;5013063;28;20251;-42
2023/08/04 05:48:10;;;;;;;7.90;2.50;;;;;;;15.18;100.00;100607.63;5013352;28;20682;-42
2023/08/04 05:50:36;;;;;;;6.35;2.17;;;;;;;15.18;100.00;100621.09;5013157;28;20208;-41
2023/08/04 05:53:02;;;;;;;5.15;2.20;;;;;;;15.17;100.00;100622.06;5012976;28;20209;-42
2023/08/04 05:55:27;;;;;;;6.55;2.10;;;;;;;15.18;100.00;100631.03;5012948;28;20267;-43
2023/08/04 05:57:55;;;;;;;6.05;2.35;;;;;;;15.21;100.00;100634.41;5028037;28;20350;-42
2023/08/04 06:00:20;;;;;;;6.13;2.20;;;;;;;15.30;100.00;100632.13;5013234;28;20192;-42
2023/08/04 06:02:46;;;;;;;7.68;2.20;;;;;;;15.28;100.00;100640.28;5011617;28;20554;-43
2023/08/04 06:05:12;;;;;;;7.90;2.35;;;;;;;15.24;100.00;100639.63;5012694;28;20173;-43
2023/08/04 06:07:39;;;;;;;2.83;2.03;;;;;;;15.38;100.00;100649.56;5012639;28;20207;-41
2023/08/04 06:10:05;;;;;;;6.13;2.55;;;;;;;15.31;100.00;100633.88;5012580;28;20527;-44
2023/08/04 06:12:30;;;;;;;5.68;2.28;;;;;;;15.35;100.00;100641.69;5012626;28;20164;-42
2023/08/04 06:14:56;;;;;;;4.07;2.28;;;;;;;15.36;100.00;100646.09;5012446;28;20671;-40
2023/08/04 06:17:21;;;;;;;7.57;2.10;;;;;;;15.30;100.00;100646.47;5010360;28;20220;-41
2023/08/04 06:19:47;;;;;;;5.57;2.10;;;;;;;15.36;100.00;100635.31;5026015;23;20200;-45
2023/08/04 06:22:16;;;;;;;9.13;2.85;;;;;;;15.40;100.00;100644.09;5004451;28;20204;-44
2023/08/04 06:24:42;;;;;;;3.40;2.13;;;;;;;15.42;100.00;100648.44;5010428;28;20205;-47
2023/08/04 06:27:08;;;;;;;4.90;2.00;;;;;;;15.50;100.00;100647.09;5002427;28;20300;-48
2023/08/04 06:29:36;;;;;;;7.63;1.70;;;;;;;15.62;100.00;100649.03;4988049;28;20182;-45
2023/08/04 06:32:02;;;;;;;4.60;1.80;;;;;;;15.73;100.00;100653.81;4991701;28;20181;-45
2023/08/04 06:34:28;;;;;;;3.95;2.50;;;;;;;15.73;100.00;100659.19;4994747;28;20200;-45
2023/08/04 06:36:53;;;;;;;5.50;2.05;;;;;;;15.88;100.00;100649.28;4992249;28;20201;-40
2023/08/04 06:39:19;;;;;;;6.72;2.08;;;;;;;16.01;100.00;100653.78;4990615;28;20185;-44
2023/08/04 06:41:44;;;;;;;6.85;2.10;;;;;;;16.09;100.00;100647.88;4989734;28;20209;-45
2023/08/04 06:44:13;;;;;;;8.52;1.77;;;;;;;16.24;100.00;100648.72;4988827;28;20204;-42
2023/08/04 06:46:38;;;;;;;4.65;1.77;;;;;;;16.33;100.00;100663.50;4997412;28;20204;-47
2023/08/04 06:49:04;;;;;;;8.23;1.98;;;;;;;16.44;100.00;100658.25;4989897;28;20185;-43
2023/08/04 06:51:29;;;;;;;6.72;1.92;;;;;;;16.55;100.00;100660.25;4995166;28;20189;-44
2023/08/04 06:53:55;;;;;;;8.18;1.63;;;;;;;16.82;100.00;100655.75;4990476;28;20268;-49
2023/08/04 06:56:20;;;;;;;8.30;1.90;;;;;;;16.97;100.00;100664.66;4987996;28;20481;-44
2023/08/04 06:58:46;;;;;;;6.55;1.75;;;;;;;17.03;100.00;100671.50;4988771;28;20204;-44
2023/08/04 07:01:11;;;;;;;7.38;2.15;;;;;;;17.12;100.00;100668.19;4986326;28;20666;-47
2023/08/04 07:03:37;;;;;;;8.35;2.03;;;;;;;17.23;100.00;100668.31;4989269;28;20196;-42
2023/08/04 07:06:02;;;;;;;9.23;2.13;;;;;;;17.13;100.00;100671.75;4993086;28;20200;-47
2023/08/04 07:08:28;;;;;;;6.38;1.73;;;;;;;17.04;100.00;100673.25;4984718;28;20220;-45
2023/08/04 07:10:53;;;;;;;4.53;1.55;;;;;;;17.02;100.00;100673.34;4984330;28;20186;-44
2023/08/04 07:13:18;;;;;;;3.05;1.38;;;;;;;17.04;100.00;100675.94;4986764;28;20189;-43
2023/08/04 07:15:55;;;;;;;8.32;2.08;;;;;;;16.84;100.00;100678.16;4984913;28;20208;-48
2023/08/04 07:18:21;;;;;;;4.40;1.45;;;;;;;16.89;100.00;100681.41;4992074;28;20211;-48
2023/08/04 07:20:46;;;;;;;7.13;1.98;;;;;;;16.84;100.00;100691.69;4988770;28;20189;-45
2023/08/04 07:23:11;;;;;;;9.43;2.20;;;;;;;16.92;100.00;100682.19;4979839;28;20185;-44
2023/08/04 07:25:37;;;;;;;5.20;1.55;;;;;;;17.05;100.00;100683.09;4987064;28;20209;-45
2023/08/04 07:28:03;;;;;;;5.28;1.42;;;;;;;16.99;100.00;100680.78;4997697;28;20214;-43
2023/08/04 07:30:30;;;;;;;7.90;2.10;;;;;;;17.14;100.00;100681.59;4990647;28;20216;-43
2023/08/04 07:32:55;;;;;;;5.50;1.73;;;;;;;17.29;100.00;100680.53;4985634;28;20197;-46
2023/08/04 07:35:21;;;;;;;5.40;2.10;;;;;;;17.38;100.00;100682.63;4982775;28;20591;-42
2023/08/04 07:37:46;;;;;;;5.45;1.58;;;;;;;17.65;100.00;100685.25;4983067;28;20299;-46
2023/08/04 07:40:13;;;;;;;4.90;1.40;;;;;;;17.80;100.00;100685.13;4991353;28;20185;-45
2023/08/04 07:42:39;;;;;;;3.90;1.50;;;;;;;18.15;100.00;100677.25;4984352;28;20230;-41
2023/08/04 07:45:04;;;;;;;6.72;1.63;;;;;;;18.43;100.00;100678.81;4985203;28;20185;-45
2023/08/04 07:47:30;;;;;;;6.55;1.70;;;;;;;18.59;100.00;100674.97;4986088;28;20290;-48
2023/08/04 07:49:55;;;;;;;5.72;1.50;;;;;;;18.33;98.59;100678.59;4983845;28;20208;-42
2023/08/04 07:52:21;;;;;;;2.80;1.17;;;;;;;18.06;97.48;100684.19;4988546;28;20177;-43
2023/08/04 07:54:46;;;;;;;3.47;1.25;;;;;;;18.24;97.98;100683.84;4984121;28;20177;-48
2023/08/04 07:57:12;;;;;;;3.67;1.20;;;;;;;17.96;98.00;100690.38;4986169;28;20719;-43
2023/08/04 07:59:37;;;;;;;4.60;1.25;;;;;;;17.91;97.61;100696.13;4986797;28;20185;-44
2023/08/04 08:02:03;;;;;;;5.28;1.30;;;;;;;17.84;97.34;100690.28;4981447;28;20177;-49
2023/08/04 08:04:28;;;;;;;4.10;1.65;;;;;;;18.04;97.80;100697.00;4987594;28;20191;-43
2023/08/04 08:06:54;;;;;;;4.90;1.48;;;;;;;17.88;96.69;100697.19;4984110;28;20205;-46
2023/08/04 08:09:19;;;;;;;9.27;1.63;;;;;;;17.82;96.06;100692.22;4991116;28;20186;-49
2023/08/04 08:11:45;;;;;;;2.90;1.23;;;;;;;17.71;95.87;100697.53;4979124;28;20248;-45
2023/08/04 08:14:10;;;;;;;5.63;1.55;;;;;;;17.93;95.77;100699.59;4982017;28;20239;-45
2023/08/04 08:16:36;;;;;;;7.93;1.40;;;;;;;18.16;95.55;100710.63;4984262;28;20229;-49
2023/08/04 08:19:01;;;;;;;3.83;1.30;;;;;;;17.91;94.85;100701.56;4985484;28;20200;-42
2023/08/04 08:21:27;;;;;;;5.43;1.33;;;;;;;17.88;94.38;100707.19;4985142;28;20762;-44
2023/08/04 08:23:52;;;;;;;4.15;1.45;;;;;;;17.85;93.94;100712.81;4983026;28;20209;-46
2023/08/04 08:26:18;;;;;;;3.78;1.17;;;;;;;17.89;94.10;100708.94;4987628;28;20205;-43
2023/08/04 08:28:43;;;;;;;5.82;1.42;;;;;;;17.87;93.72;100713.59;4989645;28;20242;-43
2023/08/04 08:31:09;;;;;;;4.57;1.20;;;;;;;18.02;94.56;100720.63;4984260;28;20189;-48
2023/08/04 08:33:35;;;;;;;7.03;1.45;;;;;;;18.07;94.60;100715.75;4986912;28;20177;-43
2023/08/04 08:36:00;;;;;;;3.75;1.17;;;;;;;18.37;95.57;100714.50;4984949;28;20631;-43
2023/08/04 08:38:26;;;;;;;5.70;1.40;;;;;;;18.38;94.51;100718.94;4986847;28;20309;-42
2023/08/04 08:40:51;;;;;;;4.70;1.40;;;;;;;18.19;93.63;100722.16;4987073;28;20245;-47
2023/08/04 08:43:17;;;;;;;3.78;1.30;;;;;;;18.32;92.92;100725.69;4987999;28;20556;-43
2023/08/04 08:45:44;;;;;;;6.93;1.52;;;;;;;18.45;92.88;100727.50;4986042;28;20190;-42
2023/08/04 08:48:11;;;;;;;8.82;1.75;;;;;;;18.46;92.63;100719.25;4982724;28;20217;-41
2023/08/04 08:50:39;;;;;;;7.15;1.70;;;;;;;18.52;92.10;100721.53;4987114;28;20702;-42
2023/08/04 08:53:16;;;;;;;5.18;1.45;;;;;;;18.57;91.71;100721.19;4986509;28;20186;-47
2023/08/04 08:55:42;;;;;;;4.80;1.40;;;;;;;18.92;91.94;100721.31;4984572;28;20227;-42
2023/08/04 08:58:09;;;;;;;5.25;1.55;;;;;;;18.60;92.32;100726.38;4980684;28;20213;-41
2023/08/04 09:00:35;;;;;;;6.15;1.75;;;;;;;18.58;92.33;100732.91;4986543;28;20185;-49
2023/08/04 09:03:03;;;;;;;6.30;1.60;;;;;;;18.58;91.21;100722.91;4982799;28;20287;-44
2023/08/04 09:05:31;;;;;;;6.63;1.60;;;;;;;18.94;90.33;100722.06;4987164;28;20193;-45
2023/08/04 09:07:57;;;;;;;4.53;1.25;;;;;;;18.80;90.11;100705.94;4985631;28;20209;-44
2023/08/04 09:10:22;;;;;;;5.75;1.48;;;;;;;18.77;89.33;100710.72;4985850;28;20265;-43
2023/08/04 09:12:51;;;;;;;4.95;1.40;;;;;;;18.52;89.91;100710.69;4984688;28;20230;-44
2023/08/04 09:15:16;;;;;;;7.25;1.67;;;;;;;19.02;91.62;100720.63;4988238;28;20213;-41
2023/08/04 09:17:42;;;;;;;4.63;1.75;;;;;;;18.98;91.08;100732.69;4988197;28;20239;-44
2023/08/04 09:20:09;;;;;;;4.55;1.35;;;;;;;19.19;90.22;100727.50;4990321;28;20194;-45
2023/08/04 09:22:53;;;;;;;6.07;1.40;;;;;;;18.82;89.47;100728.41;4985620;28;20201;-45
2023/08/04 09:25:18;;;;;;;4.13;1.20;;;;;;;18.68;88.12;100718.53;4984134;28;20964;-50
2023/08/04 09:27:49;;;;;;;2.85;1.10;;;;;;;19.14;87.49;100736.00;4984931;28;20221;-44
2023/08/04 09:30:15;;;;;;;4.57;1.20;;;;;;;18.73;86.40;100723.63;4988567;28;20621;-45
2023/08/04 09:32:43;;;;;;;4.85;1.60;;;;;;;18.97;86.27;100741.81;4986835;28;20221;-43
2023/08/04 09:35:10;;;;;;;6.88;1.42;;;;;;;19.09;86.00;100735.47;4986740;28;20190;-44
2023/08/04 09:37:38;;;;;;;7.35;1.42;;;;;;;18.84;84.97;100733.72;4994006;28;20196;-47
2023/08/04 09:40:12;;;;;;;1.90;1.10;;;;;;;18.80;84.91;100735.78;4987805;28;20252;-44
2023/08/04 09:42:39;;;;;;;3.25;1.05;;;;;;;18.94;84.73;100737.50;4970168;28;20201;-42
2023/08/04 09:45:05;;;;;;;2.95;1.20;;;;;;;18.63;84.85;100736.13;4986682;28;20269;-42
2023/08/04 09:47:31;;;;;;;4.97;1.33;;;;;;;18.72;85.76;100735.47;4986432;28;20202;-43
2023/08/04 09:49:57;;;;;;;7.43;1.48;;;;;;;18.52;86.12;100736.94;4992682;28;20667;-40
2023/08/04 09:52:24;;;;;;;4.72;1.20;;;;;;;18.56;87.10;100748.44;5000680;28;20185;-42
2023/08/04 09:54:53;;;;;;;4.47;1.00;;;;;;;18.59;85.40;100726.50;4992802;28;20177;-48
2023/08/04 09:57:19;;;;;;;4.25;1.20;;;;;;;18.57;86.02;100737.47;4991420;28;20209;-46
2023/08/04 09:59:47;;;;;;;6.82;2.03;;;;;;;18.97;86.26;100736.41;4991522;28;20174;-46
2023/08/04 10:02:14;;;;;;;4.13;1.60;;;;;;;19.20;86.92;100746.41;4985769;28;20185;-46
2023/08/04 10:04:41;;;;;;;6.30;2.13;;;;;;;19.03;88.14;100744.94;4991191;28;20192;-46
2023/08/04 10:07:09;;;;;;;6.30;1.75;;;;;;;19.12;88.86;100749.69;4973018;28;20202;-46
2023/08/04 10:09:35;;;;;;;7.20;1.45;;;;;;;19.17;89.17;100757.47;4984900;28;20180;-47
2023/08/04 10:12:01;;;;;;;8.30;1.42;;;;;;;19.35;87.83;100755.22;4979944;28;20248;-46
2023/08/04 10:14:27;;;;;;;3.28;1.35;;;;;;;19.49;85.77;100754.16;4981566;28;20262;-47
2023/08/04 10:16:54;;;;;;;6.53;1.45;;;;;;;19.39;85.82;100750.41;4979828;28;20284;-48
2023/08/04 10:19:20;;;;;;;4.88;1.58;;;;;;;19.41;85.54;100756.59;4986190;28;20370;-48
2023/08/04 10:21:46;;;;;;;5.18;1.20;;;;;;;19.59;85.44;100757.03;4977277;28;20245;-46
2023/08/04 10:24:12;;;;;;;4.20;1.30;;;;;;;19.90;83.99;100755.56;4978110;28;20170;-47
2023/08/04 10:26:49;;;;;;;4.10;1.23;;;;;;;19.95;82.73;100758.78;4980040;28;20288;-45
2023/08/04 10:29:15;;;;;;;4.82;1.17;;;;;;;19.54;80.58;100747.38;4985425;28;20205;-47
2023/08/04 10:31:44;;;;;;;3.63;1.00;;;;;;;19.17;80.23;100749.31;4984887;28;20177;-49
2023/08/04 10:34:26;;;;;;;1.95;1.27;;;;;;;19.30;81.05;100752.84;4986397;28;20225;-49
2023/08/04 10:36:53;;;;;;;4.68;1.20;;;;;;;19.32;80.94;100753.59;4983046;28;20198;-49
2023/08/04 10:39:29;;;;;;;4.93;1.20;;;;;;;19.52;81.00;100752.06;4982663;28;20193;-48
2023/08/04 10:41:55;;;;;;;5.57;1.30;;;;;;;19.69;80.39;100744.47;4979071;28;20280;-47
2023/08/04 10:44:25;;;;;;;5.40;1.15;;;;;;;19.68;81.64;100769.94;4978487;28;20165;-46
2023/08/04 10:46:51;;;;;;;6.10;1.17;;;;;;;19.83;80.75;100757.00;4983233;28;20691;-47
2023/08/04 10:49:17;;;;;;;6.97;1.20;;;;;;;20.16;80.15;100756.22;4982915;28;20703;-47
2023/08/04 10:51:46;;;;;;;3.10;0.95;;;;;;;20.87;78.74;100750.50;4985222;28;20265;-47
2023/08/04 10:54:11;;;;;;;5.63;1.20;;;;;;;21.03;78.04;100747.34;4985893;28;20201;-47
2023/08/04 10:56:37;;;;;;;3.40;1.10;;;;;;;21.14;77.33;100744.59;4983531;28;20232;-47
2023/08/04 10:59:07;;;;;;;3.30;1.20;;;;;;;21.25;76.58;100739.09;4984841;28;20289;-46
2023/08/04 11:01:33;;;;;;;4.60;0.98;;;;;;;20.94;75.66;100727.19;4980703;28;20205;-47
2023/08/04 11:03:58;;;;;;;4.47;1.10;;;;;;;20.64;76.92;100736.94;4981089;28;20291;-45
2023/08/04 11:06:24;;;;;;;3.22;0.98;;;;;;;21.06;76.29;100744.41;4977825;28;20272;-47
2023/08/04 11:08:49;;;;;;;3.88;1.17;;;;;;;21.59;75.01;100748.03;4976547;28;20201;-45
2023/08/04 11:11:15;;;;;;;3.47;0.90;;;;;;;21.49;73.55;100729.88;4978615;28;20208;-45
2023/08/04 11:13:40;;;;;;;3.25;0.80;;;;;;;21.48;72.51;100731.72;4978985;28;20640;-47
2023/08/04 11:16:06;;;;;;;4.10;1.15;;;;;;;21.34;72.55;100738.34;4985215;28;20198;-46